aviador You're here:

KWST Decoded Metar

WESTERLY in RI, USA
Report Time2018-05-27 00:53:00
UTC Time2018-05-27 01:21:23
Flight Rules vfr VFR
Wind180° at 04 kt
W.Decomp.*RWY 14: 2.3 kt HW 3.3 kt RCW
RWY 25: 2.3 kt HW 3.3 kt LCW
W.Rank180° ranks 14
Current wind is below 180° avg. (7.5)
Visibility9999 m
Phenomena:N/A
Clouds:N/A
Expected CloudBase > 1,200 ft AGL from Temp-Dew spread
CeilingNone
Temp20°C (ISA +5)
Dew Point17°C (83% RH)
QNH1011 hPa
Density Alt994 ft
Elevation69 ft
Report Wrong Elevation
Raw Report
KWST 270053Z AUTO 18004KT 7SM CLR 20/17 A2986 RMK AO2 SLP109
T02000172=

Extra information for KWST:More info

Metar Taf Metar & Taf Last 4 Metars F.Rules Stats Wind Profile Meteogram Temp Stats Airport Information Weather charts Add Link Nearby VenuesMetar ALERT Operation Metar Decoded Social comments

AIRNAV info for KWST